Flight Track Log - Related Links

Times and Time Zones

All times are in EDT time to prevent confusion due to time zone crossing. See the EJA947 flight status page for this flight to view local times or setup timezone preferences in your user account.

Time Position Orientation Groundspeed Altitude Reporting Facility
EDT Latitude Longitude Course Direction KTS MPH feet Rate Location/Type
Sat 01:31:00 PM 33.4225 -116.5264 65° Northeast  Level Estimated
Sat 01:32:00 PM 33.4808 -116.3751 65° Northeast  Level Estimated
Sat 01:33:00 PM 33.5389 -116.2235 65° Northeast  Level Estimated
Sat 01:34:00 PM 33.5968 -116.0718 65° Northeast  Level Estimated
Sat 01:35:00 PM 33.6546 -115.9199 65° Northeast  Level Estimated
Sat 01:36:00 PM 33.7122 -115.7677 66° East  Level Estimated
Sat 01:37:00 PM 33.7695 -115.6153 66° East  Level Estimated
Sat 01:38:00 PM 33.8267 -115.4628 66° East  Level Estimated
Sat 01:39:00 PM 33.8837 -115.3100 66° East  Level Estimated
Sat 01:40:00 PM 33.9405 -115.1570 66° East  Level Estimated
Sat 01:41:00 PM 33.9971 -115.0039 66° East  Level Estimated
Sat 01:42:00 PM 34.0536 -114.8505 66° East  Level Estimated
Sat 01:43:00 PM 34.1098 -114.6969 66° East  Level Estimated
Sat 01:44:00 PM 34.1659 -114.5431 66° East  Level Estimated
Sat 01:45:00 PM 34.2217 -114.3891 66° East  Level Estimated
Sat 01:46:00 PM 34.2774 -114.2349 66° East  Level Estimated
Sat 01:47:00 PM 34.3328 -114.0805 66° East  Level Estimated
Sat 01:48:00 PM 34.3881 -113.9259 67° East  Level Estimated
Sat 01:49:00 PM 34.4432 -113.7711 67° East  Level Estimated
Sat 01:50:00 PM 34.4981 -113.6161 67° East  Level Estimated
Sat 01:51:00 PM 34.5528 -113.4609 67° East  Level Estimated
Sat 01:52:00 PM 34.6073 -113.3055 67° East  Level Estimated
Sat 01:53:00 PM 34.6615 -113.1499 67° East  Level Estimated
Sat 01:54:00 PM 34.7156 -112.9940 67° East  Level Estimated
Sat 01:55:00 PM 34.7695 -112.8380 67° East  Level Estimated
Sat 01:56:00 PM 34.8232 -112.6818 67° East  Level Estimated
Sat 01:57:00 PM 34.8767 -112.5253 67° East  Level Estimated
Sat 01:58:00 PM 34.9300 -112.3687 67° East  Level Estimated
Sat 01:59:00 PM 34.9831 -112.2119 68° East  Level Estimated
Sat 02:00:00 PM 35.0360 -112.0548 68° East  Level Estimated
Sat 02:01:00 PM 35.0887 -111.8976 68° East  Level Estimated
Sat 02:02:00 PM 35.1412 -111.7401 68° East  Level Estimated
Sat 02:03:00 PM 35.1935 -111.5825 68° East  Level Estimated
Sat 02:04:00 PM 35.2456 -111.4246 68° East  Level Estimated
Sat 02:05:00 PM 35.2975 -111.2665 68° East  Level Estimated
Sat 02:06:00 PM 35.3491 -111.1083 68° East  Level Estimated
Sat 02:07:00 PM 35.4006 -110.9498 68° East  Level Estimated
Sat 02:08:00 PM 35.4519 -110.7911 68° East  Level Estimated
Sat 02:09:00 PM 35.5029 -110.6323 68° East  Level Estimated
Sat 02:10:00 PM 35.5537 -110.4732 69° East  Level Estimated
Sat 02:11:00 PM 35.6044 -110.3139 69° East  Level Estimated
Sat 02:12:00 PM 35.6548 -110.1545 69° East  Level Estimated
Sat 02:13:00 PM 35.7050 -109.9948 69° East  Level Estimated
Sat 02:14:00 PM 35.7550 -109.8349 69° East  Level Estimated
Sat 02:15:00 PM 35.8048 -109.6748 69° East  Level Estimated
Sat 02:16:00 PM 35.8544 -109.5146 69° East  Level Estimated
Sat 02:17:00 PM 35.9037 -109.3541 69° East  Level Estimated
Sat 02:18:00 PM 35.9529 -109.1934 69° East  Level Estimated
Sat 02:19:00 PM 36.0018 -109.0325 69° East  Level Estimated
Sat 02:20:00 PM 36.0505 -108.8715 69° East  Level Estimated
Sat 02:21:00 PM 36.0990 -108.7102 70° East  Level Estimated
Sat 02:22:00 PM 36.1473 -108.5487 70° East  Level Estimated
Sat 02:23:00 PM 36.1954 -108.3870 70° East  Level Estimated
Sat 02:24:00 PM 36.2432 -108.2252 70° East  Level Estimated
Sat 02:25:00 PM 36.2909 -108.0631 70° East  Level Estimated
Sat 02:26:00 PM 36.3383 -107.9008 70° East  Level Estimated
Sat 02:27:00 PM 36.3855 -107.7384 70° East  Level Estimated
Sat 02:28:00 PM 36.4324 -107.5757 70° East  Level Estimated
Sat 02:29:00 PM 36.4792 -107.4129 70° East  Level Estimated
Sat 02:30:00 PM 36.5257 -107.2498 70° East  Level Estimated
Sat 02:31:00 PM 36.5720 -107.0866 71° East  Level Estimated
Sat 02:32:00 PM 36.6181 -106.9231 71° East  Level Estimated
Sat 02:33:00 PM 36.6640 -106.7595 71° East  Level Estimated
Sat 02:34:00 PM 36.7096 -106.5956 71° East  Level Estimated
Sat 02:35:00 PM 36.7550 -106.4316 71° East  Level Estimated
Sat 02:36:00 PM 36.8002 -106.2674 71° East  Level Estimated
Sat 02:37:00 PM 36.8452 -106.1030 71° East  Level Estimated
Sat 02:38:00 PM 36.8899 -105.9384 71° East  Level Estimated
Sat 02:39:00 PM 36.9344 -105.7736 71° East  Level Estimated
Sat 02:40:00 PM 36.9787 -105.6086 71° East  Level Estimated
Sat 02:41:00 PM 37.0228 -105.4434 71° East  Level Estimated
Sat 02:42:00 PM 37.0666 -105.2780 72° East  Level Estimated
Sat 02:43:00 PM 37.1102 -105.1125 72° East  Level Estimated
Sat 02:44:00 PM 37.1535 -104.9467 72° East  Level Estimated
Sat 02:45:00 PM 37.1967 -104.7808 72° East  Level Estimated
Sat 02:46:00 PM 37.2396 -104.6147 72° East  Level Estimated
Sat 02:47:00 PM 37.2822 -104.4483 72° East  Level Estimated
Sat 02:48:00 PM 37.3246 -104.2818 72° East  Level Estimated
Sat 02:49:00 PM 37.3669 -104.1151 72° East  Level Estimated
Sat 02:50:00 PM 37.4088 -103.9482 72° East  Level Estimated
Sat 02:51:00 PM 37.4506 -103.7812 72° East  Level Estimated
Sat 02:52:00 PM 37.4921 -103.6139 73° East  Level Estimated
Sat 02:53:00 PM 37.5333 -103.4465 73° East  Level Estimated
Sat 02:54:00 PM 37.5743 -103.2788 73° East  Level Estimated
Sat 02:55:00 PM 37.6151 -103.1110 73° East  Level Estimated
Sat 02:56:00 PM 37.6557 -102.9430 73° East  Level Estimated
Sat 02:57:00 PM 37.6960 -102.7748 73° East  Level Estimated
Sat 02:58:00 PM 37.7360 -102.6065 73° East  Level Estimated
Sat 02:59:00 PM 37.7759 -102.4380 73° East  Level Estimated
Sat 03:00:00 PM 37.8155 -102.2692 73° East  Level Estimated
Sat 03:01:00 PM 37.8548 -102.1003 74° East  Level Estimated
Sat 03:02:00 PM 37.8939 -101.9312 74° East  Level Estimated
Sat 03:03:00 PM 37.9328 -101.7620 74° East  Level Estimated
Sat 03:04:00 PM 37.9714 -101.5925 74° East  Level Estimated
Sat 03:05:00 PM 38.0098 -101.4229 74° East  Level Estimated
Sat 03:06:00 PM 38.0479 -101.2531 74° East  Level Estimated
Sat 03:07:00 PM 38.0858 -101.0832 74° East  Level Estimated
Sat 03:08:00 PM 38.1235 -100.9130 74° East  Level Estimated
Sat 03:09:00 PM 38.1609 -100.7427 74° East  Level Estimated
Sat 03:10:00 PM 38.1980 -100.5722 74° East  Level Estimated
Sat 03:11:00 PM 38.2350 -100.4015 75° East  Level Estimated
Sat 03:12:00 PM 38.2716 -100.2307 75° East  Level Estimated
Sat 03:13:00 PM 38.3080 -100.0596 75° East  Level Estimated
Sat 03:14:00 PM 38.3442 -99.8885 75° East  Level Estimated
Sat 03:15:00 PM 38.3801 -99.7171 75° East  Level Estimated
Sat 03:16:00 PM 38.4158 -99.5456 75° East  Level Estimated
Sat 03:17:00 PM 38.4512 -99.3739 75° East  Level Estimated
Sat 03:18:00 PM 38.4864 -99.2020 75° East  Level Estimated
Sat 03:19:00 PM 38.5213 -99.0300 75° East  Level Estimated
Sat 03:20:00 PM 38.5559 -98.8578 76° East  Level Estimated
Sat 03:21:00 PM 38.5903 -98.6854 76° East  Level Estimated
Sat 03:22:00 PM 38.6245 -98.5129 76° East  Level Estimated
Sat 03:23:00 PM 38.6584 -98.3402 76° East  Level Estimated
Sat 03:24:00 PM 38.6920 -98.1673 76° East  Level Estimated
Sat 03:25:00 PM 38.7254 -97.9943 76° East  Level Estimated
Sat 03:26:00 PM 38.7586 -97.8211 76° East  Level Estimated
Sat 03:27:00 PM 38.7906 -97.6522 76° East  Level Estimated
Sat 03:28:00 PM 38.7906 -97.6522 303° West  Level Estimated
Sat 03:29:00 PM 38.7906 -97.6522 303° West  Level Estimated
Sat 03:30:00 PM 38.7906 -97.6522 303° West  Level Estimated
Sat 03:31:00 PM 38.7906 -97.6522 303° West  Level Estimated
Sat 03:32:00 PM 38.7906 -97.6522 303° West  Level Estimated
Sat 03:33:00 PM 38.7906 -97.6522 303° West  Level Estimated
Sat 03:34:00 PM 38.7906 -97.6522 303° West  Level Estimated
Sat 03:35:00 PM 38.7906 -97.6522 303° West  Level Estimated
Sat 03:36:00 PM 38.7906 -97.6522 303° West  Level Estimated
Sat 03:37:00 PM 38.7906 -97.6522 303° West  Level Estimated
Sat 03:38:00 PM 38.7906 -97.6522 303° West  Level Estimated
Sat 03:39:00 PM 38.7906 -97.6522 303° West  Level Estimated
Sat 03:40:00 PM 38.7906 -97.6522 303° West  Level Estimated
Sat 03:41:00 PM 38.7906 -97.6522 303° West  Level Estimated
Sat 03:42:00 PM 38.7906 -97.6522 303° West  Level Estimated
Sat 03:43:00 PM 38.7906 -97.6522 303° West  Level Estimated

Login

Don't have an account? Register now (free) for customized features, flight alerts, and more!